sensor_id;sensor_type;location;lat;lon;timestamp;P1;durP1;ratioP1;P2;durP2;ratioP2
59458;SDS011;45269;43.568;22.244;2023-03-14T00:01:57;50.53;;;36.90;;
59458;SDS011;45269;43.568;22.244;2023-03-14T00:04:22;68.18;;;41.88;;
59458;SDS011;45269;43.568;22.244;2023-03-14T00:06:47;169.68;;;96.70;;
59458;SDS011;45269;43.568;22.244;2023-03-14T00:09:14;155.57;;;91.22;;
59458;SDS011;45269;43.568;22.244;2023-03-14T00:11:40;98.85;;;62.47;;
59458;SDS011;45269;43.568;22.244;2023-03-14T00:14:05;145.35;;;87.82;;
59458;SDS011;45269;43.568;22.244;2023-03-14T00:16:30;169.65;;;105.40;;
59458;SDS011;45269;43.568;22.244;2023-03-14T00:18:57;97.90;;;62.78;;
59458;SDS011;45269;43.568;22.244;2023-03-14T00:21:23;199.40;;;122.88;;
59458;SDS011;45269;43.568;22.244;2023-03-14T00:23:48;148.35;;;92.32;;
59458;SDS011;45269;43.568;22.244;2023-03-14T00:26:17;117.25;;;83.00;;
59458;SDS011;45269;43.568;22.244;2023-03-14T00:31:09;136.18;;;91.40;;
59458;SDS011;45269;43.568;22.244;2023-03-14T00:33:34;154.07;;;98.57;;
59458;SDS011;45269;43.568;22.244;2023-03-14T00:36:04;147.90;;;90.80;;
59458;SDS011;45269;43.568;22.244;2023-03-14T00:38:31;100.72;;;64.38;;
59458;SDS011;45269;43.568;22.244;2023-03-14T00:40:56;98.97;;;63.65;;
59458;SDS011;45269;43.568;22.244;2023-03-14T00:43:22;158.20;;;93.57;;
59458;SDS011;45269;43.568;22.244;2023-03-14T00:45:51;118.72;;;71.45;;
59458;SDS011;45269;43.568;22.244;2023-03-14T00:48:16;122.50;;;73.97;;
59458;SDS011;45269;43.568;22.244;2023-03-14T00:50:42;174.57;;;91.43;;
59458;SDS011;45269;43.568;22.244;2023-03-14T00:53:07;167.30;;;91.82;;
59458;SDS011;45269;43.568;22.244;2023-03-14T00:55:36;101.22;;;60.25;;
59458;SDS011;45269;43.568;22.244;2023-03-14T00:58:01;81.85;;;50.55;;
59458;SDS011;45269;43.568;22.244;2023-03-14T01:00:26;84.07;;;52.05;;
59458;SDS011;45269;43.568;22.244;2023-03-14T01:02:52;86.68;;;53.50;;
59458;SDS011;45269;43.568;22.244;2023-03-14T01:05:17;94.45;;;59.95;;
59458;SDS011;45269;43.568;22.244;2023-03-14T01:07:42;75.60;;;50.65;;
59458;SDS011;45269;43.568;22.244;2023-03-14T01:10:08;70.22;;;43.67;;
59458;SDS011;45269;43.568;22.244;2023-03-14T01:12:33;57.42;;;37.22;;
59458;SDS011;45269;43.568;22.244;2023-03-14T01:14:59;92.97;;;60.35;;
59458;SDS011;45269;43.568;22.244;2023-03-14T01:17:25;103.47;;;65.75;;
59458;SDS011;45269;43.568;22.244;2023-03-14T01:19:50;81.63;;;50.85;;
59458;SDS011;45269;43.568;22.244;2023-03-14T01:22:15;69.82;;;45.70;;
59458;SDS011;45269;43.568;22.244;2023-03-14T01:24:41;87.63;;;55.75;;
59458;SDS011;45269;43.568;22.244;2023-03-14T01:27:06;239.13;;;140.70;;
59458;SDS011;45269;43.568;22.244;2023-03-14T01:29:31;211.07;;;125.50;;
59458;SDS011;45269;43.568;22.244;2023-03-14T01:31:57;208.13;;;129.25;;
59458;SDS011;45269;43.568;22.244;2023-03-14T01:34:22;143.02;;;89.10;;
59458;SDS011;45269;43.568;22.244;2023-03-14T01:36:47;147.90;;;90.35;;
59458;SDS011;45269;43.568;22.244;2023-03-14T01:39:13;113.95;;;73.03;;
59458;SDS011;45269;43.568;22.244;2023-03-14T01:41:38;114.68;;;71.13;;
59458;SDS011;45269;43.568;22.244;2023-03-14T01:44:04;148.20;;;94.53;;
59458;SDS011;45269;43.568;22.244;2023-03-14T01:46:47;155.95;;;100.40;;
59458;SDS011;45269;43.568;22.244;2023-03-14T01:51:59;101.40;;;68.45;;
59458;SDS011;45269;43.568;22.244;2023-03-14T01:54:27;83.25;;;57.72;;
59458;SDS011;45269;43.568;22.244;2023-03-14T01:56:57;80.78;;;55.97;;
59458;SDS011;45269;43.568;22.244;2023-03-14T01:59:26;76.60;;;51.75;;
59458;SDS011;45269;43.568;22.244;2023-03-14T02:01:53;39.33;;;30.27;;
59458;SDS011;45269;43.568;22.244;2023-03-14T02:04:20;37.75;;;28.02;;
59458;SDS011;45269;43.568;22.244;2023-03-14T02:09:29;34.25;;;24.98;;
59458;SDS011;45269;43.568;22.244;2023-03-14T02:11:55;56.00;;;40.78;;
59458;SDS011;45269;43.568;22.244;2023-03-14T02:14:24;80.72;;;60.03;;
59458;SDS011;45269;43.568;22.244;2023-03-14T02:16:50;80.25;;;58.88;;
59458;SDS011;45269;43.568;22.244;2023-03-14T02:19:17;70.53;;;48.80;;
59458;SDS011;45269;43.568;22.244;2023-03-14T02:21:49;65.30;;;48.03;;
59458;SDS011;45269;43.568;22.244;2023-03-14T02:24:36;73.75;;;54.25;;
59458;SDS011;45269;43.568;22.244;2023-03-14T02:29:28;64.25;;;47.45;;
59458;SDS011;45269;43.568;22.244;2023-03-14T02:31:54;63.67;;;46.45;;
59458;SDS011;45269;43.568;22.244;2023-03-14T02:34:19;70.63;;;48.30;;
59458;SDS011;45269;43.568;22.244;2023-03-14T02:36:45;83.68;;;49.25;;
59458;SDS011;45269;43.568;22.244;2023-03-14T02:39:21;57.30;;;33.70;;
59458;SDS011;45269;43.568;22.244;2023-03-14T02:41:48;47.00;;;31.20;;
59458;SDS011;45269;43.568;22.244;2023-03-14T02:44:14;51.67;;;36.28;;
59458;SDS011;45269;43.568;22.244;2023-03-14T02:46:41;48.83;;;36.38;;
59458;SDS011;45269;43.568;22.244;2023-03-14T02:49:08;51.97;;;37.20;;
59458;SDS011;45269;43.568;22.244;2023-03-14T02:51:35;49.47;;;37.65;;
59458;SDS011;45269;43.568;22.244;2023-03-14T02:54:01;53.00;;;37.38;;
59458;SDS011;45269;43.568;22.244;2023-03-14T02:56:26;83.30;;;58.17;;
59458;SDS011;45269;43.568;22.244;2023-03-14T02:58:52;53.25;;;38.65;;
59458;SDS011;45269;43.568;22.244;2023-03-14T03:01:17;48.60;;;33.33;;
59458;SDS011;45269;43.568;22.244;2023-03-14T03:03:42;45.33;;;34.33;;
59458;SDS011;45269;43.568;22.244;2023-03-14T03:06:08;90.32;;;68.90;;
59458;SDS011;45269;43.568;22.244;2023-03-14T03:08:33;90.15;;;61.83;;
59458;SDS011;45269;43.568;22.244;2023-03-14T03:10:58;91.65;;;64.82;;
59458;SDS011;45269;43.568;22.244;2023-03-14T03:13:24;61.38;;;41.53;;
59458;SDS011;45269;43.568;22.244;2023-03-14T03:15:49;48.75;;;33.40;;
59458;SDS011;45269;43.568;22.244;2023-03-14T03:18:14;35.30;;;24.67;;
59458;SDS011;45269;43.568;22.244;2023-03-14T03:20:40;49.47;;;35.20;;
59458;SDS011;45269;43.568;22.244;2023-03-14T03:23:05;62.22;;;46.95;;
59458;SDS011;45269;43.568;22.244;2023-03-14T03:25:30;47.33;;;35.50;;
59458;SDS011;45269;43.568;22.244;2023-03-14T03:27:56;38.13;;;28.25;;
59458;SDS011;45269;43.568;22.244;2023-03-14T03:30:21;24.85;;;18.70;;
59458;SDS011;45269;43.568;22.244;2023-03-14T03:32:47;20.65;;;16.42;;
59458;SDS011;45269;43.568;22.244;2023-03-14T03:35:12;24.05;;;16.50;;
59458;SDS011;45269;43.568;22.244;2023-03-14T03:37:37;20.52;;;15.75;;
59458;SDS011;45269;43.568;22.244;2023-03-14T03:40:03;17.83;;;14.30;;
59458;SDS011;45269;43.568;22.244;2023-03-14T03:42:32;18.63;;;14.02;;
59458;SDS011;45269;43.568;22.244;2023-03-14T03:44:58;23.58;;;18.23;;
59458;SDS011;45269;43.568;22.244;2023-03-14T03:47:24;21.60;;;16.10;;
59458;SDS011;45269;43.568;22.244;2023-03-14T03:49:49;106.65;;;70.65;;
59458;SDS011;45269;43.568;22.244;2023-03-14T03:52:14;202.45;;;133.02;;
59458;SDS011;45269;43.568;22.244;2023-03-14T03:54:40;157.48;;;103.93;;
59458;SDS011;45269;43.568;22.244;2023-03-14T03:57:05;102.38;;;70.03;;
59458;SDS011;45269;43.568;22.244;2023-03-14T03:59:30;70.00;;;49.58;;
59458;SDS011;45269;43.568;22.244;2023-03-14T04:01:55;55.53;;;41.35;;
59458;SDS011;45269;43.568;22.244;2023-03-14T04:04:21;44.50;;;32.25;;
59458;SDS011;45269;43.568;22.244;2023-03-14T04:06:46;41.38;;;32.83;;
59458;SDS011;45269;43.568;22.244;2023-03-14T04:09:11;50.05;;;40.38;;
59458;SDS011;45269;43.568;22.244;2023-03-14T04:11:37;62.03;;;48.15;;
59458;SDS011;45269;43.568;22.244;2023-03-14T04:14:02;104.22;;;87.30;;
59458;SDS011;45269;43.568;22.244;2023-03-14T04:16:28;55.05;;;44.90;;
59458;SDS011;45269;43.568;22.244;2023-03-14T04:18:54;86.60;;;58.53;;
59458;SDS011;45269;43.568;22.244;2023-03-14T04:21:19;126.15;;;76.13;;
59458;SDS011;45269;43.568;22.244;2023-03-14T04:23:44;196.25;;;112.18;;
59458;SDS011;45269;43.568;22.244;2023-03-14T04:26:10;160.50;;;97.57;;
59458;SDS011;45269;43.568;22.244;2023-03-14T04:28:35;126.53;;;77.68;;
59458;SDS011;45269;43.568;22.244;2023-03-14T04:31:11;118.90;;;71.03;;
59458;SDS011;45269;43.568;22.244;2023-03-14T04:33:36;95.70;;;61.40;;
59458;SDS011;45269;43.568;22.244;2023-03-14T04:36:02;105.03;;;75.80;;
59458;SDS011;45269;43.568;22.244;2023-03-14T04:38:28;144.13;;;95.13;;
59458;SDS011;45269;43.568;22.244;2023-03-14T04:40:53;97.13;;;65.63;;
59458;SDS011;45269;43.568;22.244;2023-03-14T04:43:18;98.03;;;61.50;;
59458;SDS011;45269;43.568;22.244;2023-03-14T04:45:43;89.40;;;62.95;;
59458;SDS011;45269;43.568;22.244;2023-03-14T04:48:09;78.03;;;56.42;;
59458;SDS011;45269;43.568;22.244;2023-03-14T04:50:34;74.15;;;53.83;;
59458;SDS011;45269;43.568;22.244;2023-03-14T04:52:59;80.45;;;55.45;;
59458;SDS011;45269;43.568;22.244;2023-03-14T04:55:25;87.22;;;57.85;;
59458;SDS011;45269;43.568;22.244;2023-03-14T04:57:50;78.55;;;53.85;;
59458;SDS011;45269;43.568;22.244;2023-03-14T05:00:15;62.03;;;45.85;;
59458;SDS011;45269;43.568;22.244;2023-03-14T05:02:43;57.20;;;42.70;;
59458;SDS011;45269;43.568;22.244;2023-03-14T05:05:09;64.28;;;48.05;;
59458;SDS011;45269;43.568;22.244;2023-03-14T05:07:34;64.20;;;45.03;;
59458;SDS011;45269;43.568;22.244;2023-03-14T05:09:59;58.38;;;43.17;;
59458;SDS011;45269;43.568;22.244;2023-03-14T05:12:24;61.25;;;45.47;;
59458;SDS011;45269;43.568;22.244;2023-03-14T05:14:50;58.97;;;41.63;;
59458;SDS011;45269;43.568;22.244;2023-03-14T05:17:15;55.40;;;37.00;;
59458;SDS011;45269;43.568;22.244;2023-03-14T05:19:41;75.22;;;48.67;;
59458;SDS011;45269;43.568;22.244;2023-03-14T05:22:07;108.97;;;74.70;;
59458;SDS011;45269;43.568;22.244;2023-03-14T05:24:32;208.13;;;137.90;;
59458;SDS011;45269;43.568;22.244;2023-03-14T05:26:57;134.10;;;89.25;;
59458;SDS011;45269;43.568;22.244;2023-03-14T05:29:23;123.07;;;90.35;;
59458;SDS011;45269;43.568;22.244;2023-03-14T05:31:48;134.50;;;97.35;;
59458;SDS011;45269;43.568;22.244;2023-03-14T05:34:13;167.05;;;122.72;;
59458;SDS011;45269;43.568;22.244;2023-03-14T05:36:39;172.68;;;134.65;;
59458;SDS011;45269;43.568;22.244;2023-03-14T05:39:04;152.57;;;108.05;;
59458;SDS011;45269;43.568;22.244;2023-03-14T05:41:29;122.65;;;72.75;;
59458;SDS011;45269;43.568;22.244;2023-03-14T05:43:55;86.47;;;56.70;;
59458;SDS011;45269;43.568;22.244;2023-03-14T05:46:20;59.22;;;40.45;;
59458;SDS011;45269;43.568;22.244;2023-03-14T05:48:45;64.85;;;41.13;;
59458;SDS011;45269;43.568;22.244;2023-03-14T05:51:10;80.53;;;55.33;;
59458;SDS011;45269;43.568;22.244;2023-03-14T05:53:36;87.40;;;54.63;;
59458;SDS011;45269;43.568;22.244;2023-03-14T05:56:01;67.32;;;44.63;;
59458;SDS011;45269;43.568;22.244;2023-03-14T05:58:27;78.38;;;53.53;;
59458;SDS011;45269;43.568;22.244;2023-03-14T06:00:52;104.13;;;73.50;;
59458;SDS011;45269;43.568;22.244;2023-03-14T06:03:17;80.38;;;57.78;;
59458;SDS011;45269;43.568;22.244;2023-03-14T06:05:43;189.98;;;115.15;;
59458;SDS011;45269;43.568;22.244;2023-03-14T06:08:08;182.73;;;116.30;;
59458;SDS011;45269;43.568;22.244;2023-03-14T06:10:34;152.27;;;100.35;;
59458;SDS011;45269;43.568;22.244;2023-03-14T06:12:59;121.78;;;86.03;;
59458;SDS011;45269;43.568;22.244;2023-03-14T06:15:25;120.85;;;81.45;;
59458;SDS011;45269;43.568;22.244;2023-03-14T06:17:50;143.82;;;97.75;;
59458;SDS011;45269;43.568;22.244;2023-03-14T06:20:15;116.50;;;83.95;;
59458;SDS011;45269;43.568;22.244;2023-03-14T06:22:41;118.00;;;85.03;;
59458;SDS011;45269;43.568;22.244;2023-03-14T06:25:07;377.63;;;220.75;;
59458;SDS011;45269;43.568;22.244;2023-03-14T06:27:32;273.67;;;185.30;;
59458;SDS011;45269;43.568;22.244;2023-03-14T06:29:58;195.30;;;135.88;;
59458;SDS011;45269;43.568;22.244;2023-03-14T06:32:23;419.40;;;273.02;;
59458;SDS011;45269;43.568;22.244;2023-03-14T06:34:49;264.23;;;184.07;;
59458;SDS011;45269;43.568;22.244;2023-03-14T06:37:14;435.40;;;327.38;;
59458;SDS011;45269;43.568;22.244;2023-03-14T06:39:40;363.67;;;264.67;;
59458;SDS011;45269;43.568;22.244;2023-03-14T06:42:05;121.47;;;90.93;;
59458;SDS011;45269;43.568;22.244;2023-03-14T06:44:30;127.88;;;102.63;;
59458;SDS011;45269;43.568;22.244;2023-03-14T06:46:56;131.77;;;103.40;;
59458;SDS011;45269;43.568;22.244;2023-03-14T06:49:21;98.65;;;78.10;;
59458;SDS011;45269;43.568;22.244;2023-03-14T06:51:47;96.78;;;76.72;;
59458;SDS011;45269;43.568;22.244;2023-03-14T06:54:12;113.00;;;93.63;;
59458;SDS011;45269;43.568;22.244;2023-03-14T06:56:37;88.35;;;70.05;;
59458;SDS011;45269;43.568;22.244;2023-03-14T06:59:03;82.28;;;65.65;;
59458;SDS011;45269;43.568;22.244;2023-03-14T07:01:28;76.68;;;61.15;;
59458;SDS011;45269;43.568;22.244;2023-03-14T07:03:54;95.07;;;75.90;;
59458;SDS011;45269;43.568;22.244;2023-03-14T07:06:20;134.15;;;106.75;;
59458;SDS011;45269;43.568;22.244;2023-03-14T07:08:45;96.32;;;80.18;;
59458;SDS011;45269;43.568;22.244;2023-03-14T07:11:11;67.47;;;56.05;;
59458;SDS011;45269;43.568;22.244;2023-03-14T07:13:37;69.72;;;55.17;;
59458;SDS011;45269;43.568;22.244;2023-03-14T07:16:03;65.60;;;54.25;;
59458;SDS011;45269;43.568;22.244;2023-03-14T07:18:28;69.63;;;53.80;;
59458;SDS011;45269;43.568;22.244;2023-03-14T07:20:54;94.00;;;70.00;;
59458;SDS011;45269;43.568;22.244;2023-03-14T07:23:19;120.75;;;86.95;;
59458;SDS011;45269;43.568;22.244;2023-03-14T07:25:45;107.93;;;78.43;;
59458;SDS011;45269;43.568;22.244;2023-03-14T07:28:10;103.80;;;74.97;;
59458;SDS011;45269;43.568;22.244;2023-03-14T07:30:35;67.78;;;51.17;;
59458;SDS011;45269;43.568;22.244;2023-03-14T07:33:00;43.90;;;34.22;;
59458;SDS011;45269;43.568;22.244;2023-03-14T07:35:26;49.13;;;32.63;;
59458;SDS011;45269;43.568;22.244;2023-03-14T07:37:51;30.92;;;23.05;;
59458;SDS011;45269;43.568;22.244;2023-03-14T07:40:16;31.85;;;21.85;;
59458;SDS011;45269;43.568;22.244;2023-03-14T07:42:42;28.75;;;20.92;;
59458;SDS011;45269;43.568;22.244;2023-03-14T07:45:08;44.50;;;31.20;;
59458;SDS011;45269;43.568;22.244;2023-03-14T07:47:34;32.72;;;22.48;;
59458;SDS011;45269;43.568;22.244;2023-03-14T07:49:59;30.90;;;22.38;;
59458;SDS011;45269;43.568;22.244;2023-03-14T07:52:25;37.10;;;27.77;;
59458;SDS011;45269;43.568;22.244;2023-03-14T07:54:50;27.20;;;21.40;;
59458;SDS011;45269;43.568;22.244;2023-03-14T07:57:15;24.05;;;19.73;;
59458;SDS011;45269;43.568;22.244;2023-03-14T07:59:41;50.15;;;35.40;;
59458;SDS011;45269;43.568;22.244;2023-03-14T08:02:08;37.72;;;26.90;;
59458;SDS011;45269;43.568;22.244;2023-03-14T08:07:02;30.05;;;22.58;;
59458;SDS011;45269;43.568;22.244;2023-03-14T08:09:28;29.75;;;24.40;;
59458;SDS011;45269;43.568;22.244;2023-03-14T08:11:53;28.48;;;23.23;;
59458;SDS011;45269;43.568;22.244;2023-03-14T08:14:18;38.10;;;29.15;;
59458;SDS011;45269;43.568;22.244;2023-03-14T08:16:44;34.65;;;24.23;;
59458;SDS011;45269;43.568;22.244;2023-03-14T08:19:09;58.45;;;42.25;;
59458;SDS011;45269;43.568;22.244;2023-03-14T08:21:34;28.33;;;23.45;;
59458;SDS011;45269;43.568;22.244;2023-03-14T08:23:59;33.83;;;27.38;;
59458;SDS011;45269;43.568;22.244;2023-03-14T08:26:25;32.50;;;25.48;;
59458;SDS011;45269;43.568;22.244;2023-03-14T08:28:51;31.95;;;24.58;;
59458;SDS011;45269;43.568;22.244;2023-03-14T08:31:16;27.77;;;21.30;;
59458;SDS011;45269;43.568;22.244;2023-03-14T08:33:41;19.13;;;15.88;;
59458;SDS011;45269;43.568;22.244;2023-03-14T08:36:06;31.00;;;23.48;;
59458;SDS011;45269;43.568;22.244;2023-03-14T08:38:32;84.30;;;66.10;;
59458;SDS011;45269;43.568;22.244;2023-03-14T08:40:58;19.67;;;16.40;;
59458;SDS011;45269;43.568;22.244;2023-03-14T08:43:23;28.73;;;23.55;;
59458;SDS011;45269;43.568;22.244;2023-03-14T08:45:49;23.90;;;17.80;;
59458;SDS011;45269;43.568;22.244;2023-03-14T08:48:14;21.60;;;19.02;;
59458;SDS011;45269;43.568;22.244;2023-03-14T08:50:39;22.05;;;19.02;;
59458;SDS011;45269;43.568;22.244;2023-03-14T08:53:05;18.10;;;14.70;;
59458;SDS011;45269;43.568;22.244;2023-03-14T08:55:30;25.38;;;20.48;;
59458;SDS011;45269;43.568;22.244;2023-03-14T08:57:55;16.65;;;14.15;;
59458;SDS011;45269;43.568;22.244;2023-03-14T09:00:21;22.75;;;18.85;;
59458;SDS011;45269;43.568;22.244;2023-03-14T09:02:46;14.38;;;12.25;;
59458;SDS011;45269;43.568;22.244;2023-03-14T09:05:11;15.25;;;11.75;;
59458;SDS011;45269;43.568;22.244;2023-03-14T09:07:37;19.35;;;14.82;;
59458;SDS011;45269;43.568;22.244;2023-03-14T09:10:03;26.17;;;19.90;;
59458;SDS011;45269;43.568;22.244;2023-03-14T09:12:28;127.80;;;98.22;;
59458;SDS011;45269;43.568;22.244;2023-03-14T09:14:53;22.55;;;18.40;;
59458;SDS011;45269;43.568;22.244;2023-03-14T09:17:19;28.75;;;22.00;;
59458;SDS011;45269;43.568;22.244;2023-03-14T09:19:44;28.90;;;22.45;;
59458;SDS011;45269;43.568;22.244;2023-03-14T09:22:09;15.85;;;13.18;;
59458;SDS011;45269;43.568;22.244;2023-03-14T09:24:35;11.75;;;9.80;;
59458;SDS011;45269;43.568;22.244;2023-03-14T09:27:00;20.17;;;16.20;;
59458;SDS011;45269;43.568;22.244;2023-03-14T09:29:25;27.63;;;21.63;;
59458;SDS011;45269;43.568;22.244;2023-03-14T09:31:51;24.15;;;21.75;;
59458;SDS011;45269;43.568;22.244;2023-03-14T09:34:16;12.57;;;10.98;;
59458;SDS011;45269;43.568;22.244;2023-03-14T09:36:41;21.52;;;18.92;;
59458;SDS011;45269;43.568;22.244;2023-03-14T09:39:09;38.55;;;28.10;;
59458;SDS011;45269;43.568;22.244;2023-03-14T09:41:35;14.00;;;12.50;;
59458;SDS011;45269;43.568;22.244;2023-03-14T09:44:05;8.70;;;7.50;;
59458;SDS011;45269;43.568;22.244;2023-03-14T09:46:31;10.23;;;9.23;;
59458;SDS011;45269;43.568;22.244;2023-03-14T09:48:58;35.03;;;28.10;;
59458;SDS011;45269;43.568;22.244;2023-03-14T09:51:24;17.60;;;14.63;;
59458;SDS011;45269;43.568;22.244;2023-03-14T09:53:50;18.38;;;14.52;;
59458;SDS011;45269;43.568;22.244;2023-03-14T09:56:18;15.45;;;13.27;;
59458;SDS011;45269;43.568;22.244;2023-03-14T09:58:45;16.17;;;12.80;;
59458;SDS011;45269;43.568;22.244;2023-03-14T10:01:13;14.07;;;12.20;;
59458;SDS011;45269;43.568;22.244;2023-03-14T10:03:40;11.20;;;9.10;;
59458;SDS011;45269;43.568;22.244;2023-03-14T10:06:11;12.27;;;10.30;;
59458;SDS011;45269;43.568;22.244;2023-03-14T10:08:38;13.75;;;12.32;;
59458;SDS011;45269;43.568;22.244;2023-03-14T10:11:04;9.98;;;8.75;;
59458;SDS011;45269;43.568;22.244;2023-03-14T10:13:31;12.52;;;11.20;;
59458;SDS011;45269;43.568;22.244;2023-03-14T10:16:05;14.38;;;12.93;;
59458;SDS011;45269;43.568;22.244;2023-03-14T10:18:33;14.55;;;11.63;;
59458;SDS011;45269;43.568;22.244;2023-03-14T10:21:06;11.35;;;9.68;;
59458;SDS011;45269;43.568;22.244;2023-03-14T10:23:32;13.20;;;11.93;;
59458;SDS011;45269;43.568;22.244;2023-03-14T10:26:00;11.15;;;10.10;;
59458;SDS011;45269;43.568;22.244;2023-03-14T10:28:28;16.17;;;14.65;;
59458;SDS011;45269;43.568;22.244;2023-03-14T10:30:54;12.70;;;10.77;;
59458;SDS011;45269;43.568;22.244;2023-03-14T10:33:22;11.30;;;9.60;;
59458;SDS011;45269;43.568;22.244;2023-03-14T10:35:57;11.50;;;10.30;;
59458;SDS011;45269;43.568;22.244;2023-03-14T10:38:25;10.38;;;9.15;;
59458;SDS011;45269;43.568;22.244;2023-03-14T10:40:52;8.35;;;7.43;;
59458;SDS011;45269;43.568;22.244;2023-03-14T10:43:38;8.35;;;7.40;;
59458;SDS011;45269;43.568;22.244;2023-03-14T10:46:16;13.30;;;11.32;;
59458;SDS011;45269;43.568;22.244;2023-03-14T10:48:42;9.63;;;8.63;;
59458;SDS011;45269;43.568;22.244;2023-03-14T10:53:43;7.93;;;7.13;;
59458;SDS011;45269;43.568;22.244;2023-03-14T10:56:13;7.72;;;6.93;;
59458;SDS011;45269;43.568;22.244;2023-03-14T10:58:40;9.80;;;7.47;;
59458;SDS011;45269;43.568;22.244;2023-03-14T11:01:09;8.25;;;7.40;;
59458;SDS011;45269;43.568;22.244;2023-03-14T11:03:40;10.18;;;9.18;;
59458;SDS011;45269;43.568;22.244;2023-03-14T11:16:26;15.70;;;13.82;;
59458;SDS011;45269;43.568;22.244;2023-03-14T11:19:17;24.70;;;17.10;;
59458;SDS011;45269;43.568;22.244;2023-03-14T11:21:55;14.65;;;12.73;;
59458;SDS011;45269;43.568;22.244;2023-03-14T11:27:15;14.77;;;11.32;;
59458;SDS011;45269;43.568;22.244;2023-03-14T11:30:05;11.05;;;9.93;;
59458;SDS011;45269;43.568;22.244;2023-03-14T11:32:36;8.10;;;7.25;;
59458;SDS011;45269;43.568;22.244;2023-03-14T11:35:16;12.02;;;10.55;;
59458;SDS011;45269;43.568;22.244;2023-03-14T11:38:03;12.52;;;10.82;;
59458;SDS011;45269;43.568;22.244;2023-03-14T11:40:30;8.80;;;7.90;;
59458;SDS011;45269;43.568;22.244;2023-03-14T11:43:06;15.75;;;14.27;;
59458;SDS011;45269;43.568;22.244;2023-03-14T11:45:41;30.77;;;27.70;;
59458;SDS011;45269;43.568;22.244;2023-03-14T11:50:52;22.83;;;20.58;;
59458;SDS011;45269;43.568;22.244;2023-03-14T11:55:43;12.97;;;11.47;;
59458;SDS011;45269;43.568;22.244;2023-03-14T11:58:14;9.80;;;8.80;;
59458;SDS011;45269;43.568;22.244;2023-03-14T12:00:40;21.90;;;16.55;;
59458;SDS011;45269;43.568;22.244;2023-03-14T12:03:10;11.48;;;9.50;;
59458;SDS011;45269;43.568;22.244;2023-03-14T12:11:04;17.70;;;14.90;;
59458;SDS011;45269;43.568;22.244;2023-03-14T12:13:32;20.63;;;18.25;;
59458;SDS011;45269;43.568;22.244;2023-03-14T12:16:00;17.20;;;15.40;;
59458;SDS011;45269;43.568;22.244;2023-03-14T12:18:38;20.08;;;18.00;;
59458;SDS011;45269;43.568;22.244;2023-03-14T12:21:04;10.30;;;9.20;;
59458;SDS011;45269;43.568;22.244;2023-03-14T12:23:34;14.13;;;12.70;;
59458;SDS011;45269;43.568;22.244;2023-03-14T12:28:33;12.77;;;9.75;;
59458;SDS011;45269;43.568;22.244;2023-03-14T12:31:26;14.15;;;8.82;;
59458;SDS011;45269;43.568;22.244;2023-03-14T12:33:43;8.93;;;7.72;;
59458;SDS011;45269;43.568;22.244;2023-03-14T12:36:18;13.75;;;11.68;;
59458;SDS011;45269;43.568;22.244;2023-03-14T12:41:14;13.02;;;11.07;;
59458;SDS011;45269;43.568;22.244;2023-03-14T12:43:40;18.88;;;16.33;;
59458;SDS011;45269;43.568;22.244;2023-03-14T12:48:49;13.95;;;12.35;;
59458;SDS011;45269;43.568;22.244;2023-03-14T12:51:19;12.45;;;9.15;;
59458;SDS011;45269;43.568;22.244;2023-03-14T12:59:02;14.95;;;13.10;;
59458;SDS011;45269;43.568;22.244;2023-03-14T13:01:30;29.52;;;22.63;;
59458;SDS011;45269;43.568;22.244;2023-03-14T13:03:58;14.23;;;12.68;;
59458;SDS011;45269;43.568;22.244;2023-03-14T13:12:00;15.07;;;12.40;;
59458;SDS011;45269;43.568;22.244;2023-03-14T13:14:27;18.77;;;15.35;;
59458;SDS011;45269;43.568;22.244;2023-03-14T13:16:53;29.40;;;25.73;;
59458;SDS011;45269;43.568;22.244;2023-03-14T13:19:19;18.42;;;13.75;;
59458;SDS011;45269;43.568;22.244;2023-03-14T13:21:45;12.23;;;9.48;;
59458;SDS011;45269;43.568;22.244;2023-03-14T13:24:23;18.50;;;14.48;;
59458;SDS011;45269;43.568;22.244;2023-03-14T13:26:49;17.58;;;14.23;;
59458;SDS011;45269;43.568;22.244;2023-03-14T13:29:18;13.98;;;11.07;;
59458;SDS011;45269;43.568;22.244;2023-03-14T13:31:48;14.43;;;11.30;;
59458;SDS011;45269;43.568;22.244;2023-03-14T13:34:14;20.77;;;15.68;;
59458;SDS011;45269;43.568;22.244;2023-03-14T13:36:39;21.67;;;17.10;;
59458;SDS011;45269;43.568;22.244;2023-03-14T13:39:09;23.38;;;15.85;;
59458;SDS011;45269;43.568;22.244;2023-03-14T13:41:37;17.88;;;14.07;;
59458;SDS011;45269;43.568;22.244;2023-03-14T13:44:17;17.58;;;13.32;;
59458;SDS011;45269;43.568;22.244;2023-03-14T13:49:11;23.55;;;16.85;;
59458;SDS011;45269;43.568;22.244;2023-03-14T13:51:38;33.03;;;24.48;;
59458;SDS011;45269;43.568;22.244;2023-03-14T13:54:11;15.05;;;13.45;;
59458;SDS011;45269;43.568;22.244;2023-03-14T13:56:38;20.88;;;17.08;;
59458;SDS011;45269;43.568;22.244;2023-03-14T13:59:03;12.70;;;11.07;;
59458;SDS011;45269;43.568;22.244;2023-03-14T14:01:35;13.98;;;11.65;;
59458;SDS011;45269;43.568;22.244;2023-03-14T14:04:05;9.57;;;8.55;;
59458;SDS011;45269;43.568;22.244;2023-03-14T14:08:58;9.80;;;8.80;;
59458;SDS011;45269;43.568;22.244;2023-03-14T14:15:31;27.13;;;19.55;;
59458;SDS011;45269;43.568;22.244;2023-03-14T14:17:26;45.80;;;28.80;;
59458;SDS011;45269;43.568;22.244;2023-03-14T14:19:53;38.50;;;27.02;;
59458;SDS011;45269;43.568;22.244;2023-03-14T14:22:19;58.80;;;36.67;;
59458;SDS011;45269;43.568;22.244;2023-03-14T14:24:44;50.25;;;30.80;;
59458;SDS011;45269;43.568;22.244;2023-03-14T14:27:17;29.73;;;21.35;;
59458;SDS011;45269;43.568;22.244;2023-03-14T14:29:43;58.47;;;38.72;;
59458;SDS011;45269;43.568;22.244;2023-03-14T14:34:44;52.17;;;37.75;;
59458;SDS011;45269;43.568;22.244;2023-03-14T14:39:43;34.78;;;25.35;;
59458;SDS011;45269;43.568;22.244;2023-03-14T14:42:13;38.85;;;30.75;;
59458;SDS011;45269;43.568;22.244;2023-03-14T14:44:39;59.20;;;41.70;;
59458;SDS011;45269;43.568;22.244;2023-03-14T14:47:04;30.75;;;22.00;;
59458;SDS011;45269;43.568;22.244;2023-03-14T14:49:31;32.75;;;23.95;;
59458;SDS011;45269;43.568;22.244;2023-03-14T14:52:03;35.55;;;23.77;;
59458;SDS011;45269;43.568;22.244;2023-03-14T14:54:33;23.83;;;18.95;;
59458;SDS011;45269;43.568;22.244;2023-03-14T14:57:02;28.08;;;21.25;;
59458;SDS011;45269;43.568;22.244;2023-03-14T14:59:28;37.45;;;26.98;;
59458;SDS011;45269;43.568;22.244;2023-03-14T15:02:02;45.50;;;30.42;;
59458;SDS011;45269;43.568;22.244;2023-03-14T15:04:30;48.50;;;36.75;;
59458;SDS011;45269;43.568;22.244;2023-03-14T15:06:56;35.13;;;26.23;;
59458;SDS011;45269;43.568;22.244;2023-03-14T15:09:21;21.60;;;17.55;;
59458;SDS011;45269;43.568;22.244;2023-03-14T15:11:47;21.00;;;16.50;;
59458;SDS011;45269;43.568;22.244;2023-03-14T15:14:12;24.85;;;19.35;;
59458;SDS011;45269;43.568;22.244;2023-03-14T15:16:38;19.23;;;15.15;;